F/V Anna Mamm Mari — FOHD — position and weather

sailwx.info

Track history (hours):
 
Tides and Currents Weather Stations Pressure Air Temp Water Temp Dewpoint Dewpoint Depression Visibility Wind Speed Wind Dir Waves Ship Positions

F/V Anna Mamm Mari

Last reported at 2016-Aug-27 16:33 UTC. Time now 2016-Aug-27 16:58 UTC.
Position N 46°02' W 001°30'.

Length 17 m.

Type: Fishing. MMSI: 228393000.

Date/timePositionNaut miles runAvg speedWind from/ knotsBaromVisibWave heightAir tempDewpointWater temp
2016-Aug-27 16:33N 46°02' W 001°30'10 7.5
2016-Aug-27 15:15N 46°02' W 001°44'3 0.5
2016-Aug-27 08:26N 46°01' W 001°40'2 2.8
2016-Aug-27 07:33N 46°03' W 001°42'0 0.4
2016-Aug-27 06:33N 46°03' W 001°42'0 0.2
2016-Aug-27 04:33N 46°03' W 001°42'0 0.2
2016-Aug-27 03:34N 46°03' W 001°42'0 0.1
2016-Aug-27 02:32N 46°03' W 001°42'0 0.2
2016-Aug-27 01:29N 46°03' W 001°42'0 0.2
2016-Aug-27 00:33N 46°03' W 001°41'0 0.1
2016-Aug-26 23:33N 46°03' W 001°41'0 0.1
2016-Aug-26 22:33N 46°03' W 001°41'3 0.8
2016-Aug-26 19:13N 46°01' W 001°43'2 1.3
2016-Aug-26 17:30N 46°01' W 001°40'10 4.6
2016-Aug-26 15:23N 46°11' W 001°41'7 8.5
2016-Aug-26 14:34N 46°18' W 001°42'12 6.2
2016-Aug-26 12:34N 46°30' W 001°47'0 0.0
2016-Aug-26 11:33N 46°30' W 001°47'0 0.0
2016-Aug-26 10:33N 46°30' W 001°47'0 0.0
2016-Aug-26 09:34N 46°30' W 001°47'0 0.0
2016-Aug-26 08:33N 46°30' W 001°47'0 0.0
2016-Aug-26 07:33N 46°30' W 001°47'0 0.0
2016-Aug-26 06:33N 46°30' W 001°47'0 0.0
2016-Aug-26 04:33N 46°30' W 001°47'0 0.0
2016-Aug-26 03:34N 46°30' W 001°47'0 0.0
2016-Aug-26 02:34N 46°30' W 001°47'0 0.0
2016-Aug-26 01:33N 46°30' W 001°47'0 0.2
2016-Aug-26 00:33N 46°30' W 001°47'0 0.0
2016-Aug-25 23:34N 46°30' W 001°47'0 0.0
2016-Aug-25 22:34N 46°30' W 001°47'0 0.0
2016-Aug-25 21:33N 46°30' W 001°47'0 0.0
2016-Aug-25 20:34N 46°30' W 001°47'0 0.0
2016-Aug-25 19:33N 46°30' W 001°47'0 0.0
2016-Aug-25 18:33N 46°30' W 001°47'0 0.0
2016-Aug-25 17:33N 46°30' W 001°47'3 3.2
2016-Aug-25 16:33N 46°29' W 001°52'9 8.6
2016-Aug-25 15:34N 46°32' W 002°04'9 0.7
2016-Aug-25 02:33N 46°35' W 002°16'10 9.5
2016-Aug-25 01:32N 46°32' W 002°03'9 9.6
2016-Aug-25 00:34N 46°29' W 001°50'2 2.3
2016-Aug-24 23:33N 46°30' W 001°47'0 0.0
2016-Aug-24 22:34N 46°30' W 001°47'0 0.0
2016-Aug-24 21:34N 46°30' W 001°47'0 0.0
2016-Aug-24 20:34N 46°30' W 001°47'0 0.0
2016-Aug-24 19:34N 46°30' W 001°47'0 0.0
2016-Aug-24 18:34N 46°30' W 001°47'0 0.0
2016-Aug-24 17:34N 46°30' W 001°47'0 0.0
2016-Aug-24 16:33N 46°30' W 001°47'0 0.0
2016-Aug-24 15:34N 46°30' W 001°47'0 0.0
2016-Aug-24 14:33N 46°30' W 001°47'0 0.0
2016-Aug-24 13:34N 46°30' W 001°47'0 0.0
2016-Aug-24 12:33N 46°30' W 001°47'0 0.0
2016-Aug-24 11:34N 46°30' W 001°47'0 0.0
2016-Aug-24 10:34N 46°30' W 001°47'5 5.3
2016-Aug-24 09:33N 46°30' W 001°55'9 8.6
2016-Aug-24 08:33N 46°34' W 002°06'9 9.1
2016-Aug-24 07:34N 46°37' W 002°19'9 9.1
2016-Aug-24 06:33N 46°40' W 002°31'18 9.0
2016-Aug-24 04:33N 46°46' W 002°56'9 9.2
2016-Aug-24 03:31N 46°50' W 003°09'5 5.2
2016-Aug-24 02:33N 46°51' W 003°16'1 0.9
2016-Aug-24 01:34N 46°51' W 003°17'2 1.7
2016-Aug-24 00:33N 46°51' W 003°14'1 1.2
2016-Aug-23 23:34N 46°51' W 003°12'2 2.0
2016-Aug-23 22:34N 46°50' W 003°10'2 1.9
2016-Aug-23 21:33N 46°49' W 003°08'1 1.2
2016-Aug-23 20:33N 46°49' W 003°06'0 0.1
2016-Aug-23 19:33N 46°49' W 003°06'11 1.4
2016-Aug-23 11:33N 46°46' W 002°50'1 0.9
2016-Aug-23 10:27N 46°46' W 002°51'2 1.7
2016-Aug-23 09:29N 46°47' W 002°49'1 0.8
2016-Aug-23 08:29N 46°47' W 002°48'1 0.9
2016-Aug-23 07:23N 46°47' W 002°47'0 0.3
2016-Aug-23 06:32N 46°48' W 002°47'2 1.1
2016-Aug-23 04:27N 46°46' W 002°50'0 0.0
2016-Aug-23 03:33N 46°46' W 002°50'0 0.0
2016-Aug-23 02:14N 46°46' W 002°50'0 0.1
2016-Aug-22 23:24N 46°46' W 002°50'19 2.1
2016-Aug-22 14:15N 46°51' W 003°17'2 2.3
2016-Aug-22 13:27N 46°53' W 003°16'2 1.7
2016-Aug-22 12:29N 46°51' W 003°17'2 1.4
2016-Aug-22 11:19N 46°51' W 003°14'7 8.3
2016-Aug-22 10:27N 46°50' W 003°04'8 9.3
2016-Aug-22 09:33N 46°48' W 002°52'3 2.7
2016-Aug-22 08:33N 46°47' W 002°49'0 0.1
2016-Aug-22 07:32N 46°47' W 002°48'0 0.0
2016-Aug-22 06:26N 46°47' W 002°48'0 0.1
2016-Aug-22 02:15N 46°47' W 002°48'0 0.1
2016-Aug-22 01:32N 46°47' W 002°48'1 0.5
2016-Aug-22 00:28N 46°47' W 002°48'5 5.0
2016-Aug-21 23:31N 46°49' W 002°54'8 8.2
2016-Aug-21 22:33N 46°55' W 003°02'17 4.1
2016-Aug-21 18:31N 47°07' W 003°18'1 0.2
2016-Aug-21 16:24N 47°07' W 003°19'6 2.2
2016-Aug-21 13:30N 47°03' W 003°12'1 1.5
2016-Aug-21 12:33N 47°02' W 003°14'2 0.8
2016-Aug-21 10:33N 47°03' W 003°12'2 1.8
2016-Aug-21 09:33N 47°03' W 003°15'7 3.1
2016-Aug-21 07:15N 47°04' W 003°04'6 8.6
2016-Aug-21 06:33N 47°03' W 002°55'20 8.2
2016-Aug-21 04:10N 47°01' W 002°27'5 8.1
2016-Aug-21 03:34N 47°01' W 002°20'1 1.1
2016-Aug-21 02:32N 47°02' W 002°18'0 0.0
2016-Aug-21 00:15N 47°02' W 002°18'0 0.0
2016-Aug-20 22:30N 47°02' W 002°18'0 0.0
2016-Aug-20 20:26N 47°02' W 002°18'0 0.0
2016-Aug-20 19:30N 47°02' W 002°18'0 0.0
2016-Aug-20 18:27N 47°02' W 002°18'0 0.0
2016-Aug-20 17:32N 47°02' W 002°18'0 0.0
2016-Aug-20 16:22N 47°02' W 002°18'1 0.6
2016-Aug-20 15:33N 47°02' W 002°18'40 1.9
2016-Aug-19 18:27N 47°01' W 003°16'3 3.0
2016-Aug-19 17:21N 47°03' W 003°12'1 0.7
2016-Aug-19 15:30N 47°05' W 003°13'0 0.4
2016-Aug-19 14:30N 47°04' W 003°13'2 1.9
2016-Aug-19 13:33N 47°03' W 003°14'1 1.0
2016-Aug-19 12:33N 47°04' W 003°14'1 1.2
2016-Aug-19 11:33N 47°05' W 003°14'3 2.8
2016-Aug-19 10:24N 47°07' W 003°18'1 0.6
2016-Aug-19 09:24N 47°07' W 003°19'1 1.1
2016-Aug-19 08:33N 47°07' W 003°19'0 0.2
2016-Aug-19 07:33N 47°07' W 003°19'1 0.8
2016-Aug-19 06:24N 47°07' W 003°18'0 0.2
2016-Aug-19 05:33N 47°07' W 003°18'1 0.7
2016-Aug-19 04:33N 47°07' W 003°17'0 0.0
2016-Aug-19 03:33N 47°07' W 003°17'0 0.0
2016-Aug-19 02:33N 47°07' W 003°17'0 0.0
2016-Aug-19 01:30N 47°07' W 003°17'0 0.0
2016-Aug-19 00:27N 47°07' W 003°17'0 0.1
2016-Aug-18 21:24N 47°07' W 003°17'0 0.1
2016-Aug-18 18:15N 47°07' W 003°17'3 1.0
2016-Aug-18 15:30N 47°04' W 003°17'3 3.1
2016-Aug-18 14:24N 47°08' W 003°17'2 1.5
2016-Aug-18 13:21N 47°06' W 003°16'2 1.3
2016-Aug-18 11:30N 47°04' W 003°14'0 0.4
2016-Aug-18 10:27N 47°05' W 003°14'0 0.2
2016-Aug-18 09:19N 47°05' W 003°14'1 0.7
2016-Aug-18 08:30N 47°05' W 003°14'3 2.8
2016-Aug-18 07:21N 47°08' W 003°17'1 1.8
2016-Aug-18 06:33N 47°07' W 003°16'0 0.3
2016-Aug-18 05:33N 47°07' W 003°16'1 0.3
2016-Aug-18 03:33N 47°07' W 003°15'0 0.0
2016-Aug-17 17:12N 47°07' W 003°15'  
Track history (hours):
 
Tides and Currents Weather Stations Pressure Air Temp Water Temp Dewpoint Dewpoint Depression Visibility Wind Speed Wind Dir Waves Ship Positions

F/V Anna Mamm Mari

Last reported at 2016-Aug-27 16:33 UTC. Time now 2016-Aug-27 16:58 UTC.
Position N 46°02' W 001°30'.

Length 17 m.

Type: Fishing. MMSI: 228393000.

Date/timePositionNaut miles runAvg speedWind from/ knotsBaromVisibWave heightAir tempDewpointWater temp
2016-Aug-27 16:33N 46°02' W 001°30'10 7.5
2016-Aug-27 15:15N 46°02' W 001°44'3 0.5
2016-Aug-27 08:26N 46°01' W 001°40'2 2.8
2016-Aug-27 07:33N 46°03' W 001°42'0 0.4
2016-Aug-27 06:33N 46°03' W 001°42'0 0.2
2016-Aug-27 04:33N 46°03' W 001°42'0 0.2
2016-Aug-27 03:34N 46°03' W 001°42'0 0.1
2016-Aug-27 02:32N 46°03' W 001°42'0 0.2
2016-Aug-27 01:29N 46°03' W 001°42'0 0.2
2016-Aug-27 00:33N 46°03' W 001°41'0 0.1
2016-Aug-26 23:33N 46°03' W 001°41'0 0.1
2016-Aug-26 22:33N 46°03' W 001°41'3 0.8
2016-Aug-26 19:13N 46°01' W 001°43'2 1.3
2016-Aug-26 17:30N 46°01' W 001°40'10 4.6
2016-Aug-26 15:23N 46°11' W 001°41'7 8.5
2016-Aug-26 14:34N 46°18' W 001°42'12 6.2
2016-Aug-26 12:34N 46°30' W 001°47'0 0.0
2016-Aug-26 11:33N 46°30' W 001°47'0 0.0
2016-Aug-26 10:33N 46°30' W 001°47'0 0.0
2016-Aug-26 09:34N 46°30' W 001°47'0 0.0
2016-Aug-26 08:33N 46°30' W 001°47'0 0.0
2016-Aug-26 07:33N 46°30' W 001°47'0 0.0
2016-Aug-26 06:33N 46°30' W 001°47'0 0.0
2016-Aug-26 04:33N 46°30' W 001°47'0 0.0
2016-Aug-26 03:34N 46°30' W 001°47'0 0.0
2016-Aug-26 02:34N 46°30' W 001°47'0 0.0
2016-Aug-26 01:33N 46°30' W 001°47'0 0.2
2016-Aug-26 00:33N 46°30' W 001°47'0 0.0
2016-Aug-25 23:34N 46°30' W 001°47'0 0.0
2016-Aug-25 22:34N 46°30' W 001°47'0 0.0
2016-Aug-25 21:33N 46°30' W 001°47'0 0.0
2016-Aug-25 20:34N 46°30' W 001°47'0 0.0
2016-Aug-25 19:33N 46°30' W 001°47'0 0.0
2016-Aug-25 18:33N 46°30' W 001°47'0 0.0
2016-Aug-25 17:33N 46°30' W 001°47'3 3.2
2016-Aug-25 16:33N 46°29' W 001°52'9 8.6
2016-Aug-25 15:34N 46°32' W 002°04'9 0.7
2016-Aug-25 02:33N 46°35' W 002°16'10 9.5
2016-Aug-25 01:32N 46°32' W 002°03'9 9.6
2016-Aug-25 00:34N 46°29' W 001°50'2 2.3
2016-Aug-24 23:33N 46°30' W 001°47'0 0.0
2016-Aug-24 22:34N 46°30' W 001°47'0 0.0
2016-Aug-24 21:34N 46°30' W 001°47'0 0.0
2016-Aug-24 20:34N 46°30' W 001°47'0 0.0
2016-Aug-24 19:34N 46°30' W 001°47'0 0.0
2016-Aug-24 18:34N 46°30' W 001°47'0 0.0
2016-Aug-24 17:34N 46°30' W 001°47'0 0.0
2016-Aug-24 16:33N 46°30' W 001°47'0 0.0
2016-Aug-24 15:34N 46°30' W 001°47'0 0.0
2016-Aug-24 14:33N 46°30' W 001°47'0 0.0
2016-Aug-24 13:34N 46°30' W 001°47'0 0.0
2016-Aug-24 12:33N 46°30' W 001°47'0 0.0
2016-Aug-24 11:34N 46°30' W 001°47'0 0.0
2016-Aug-24 10:34N 46°30' W 001°47'5 5.3
2016-Aug-24 09:33N 46°30' W 001°55'9 8.6
2016-Aug-24 08:33N 46°34' W 002°06'9 9.1
2016-Aug-24 07:34N 46°37' W 002°19'9 9.1
2016-Aug-24 06:33N 46°40' W 002°31'18 9.0
2016-Aug-24 04:33N 46°46' W 002°56'9 9.2
2016-Aug-24 03:31N 46°50' W 003°09'5 5.2
2016-Aug-24 02:33N 46°51' W 003°16'1 0.9
2016-Aug-24 01:34N 46°51' W 003°17'2 1.7
2016-Aug-24 00:33N 46°51' W 003°14'1 1.2
2016-Aug-23 23:34N 46°51' W 003°12'2 2.0
2016-Aug-23 22:34N 46°50' W 003°10'2 1.9
2016-Aug-23 21:33N 46°49' W 003°08'1 1.2
2016-Aug-23 20:33N 46°49' W 003°06'0 0.1
2016-Aug-23 19:33N 46°49' W 003°06'11 1.4
2016-Aug-23 11:33N 46°46' W 002°50'1 0.9
2016-Aug-23 10:27N 46°46' W 002°51'2 1.7
2016-Aug-23 09:29N 46°47' W 002°49'1 0.8
2016-Aug-23 08:29N 46°47' W 002°48'1 0.9
2016-Aug-23 07:23N 46°47' W 002°47'0 0.3
2016-Aug-23 06:32N 46°48' W 002°47'2 1.1
2016-Aug-23 04:27N 46°46' W 002°50'0 0.0
2016-Aug-23 03:33N 46°46' W 002°50'0 0.0
2016-Aug-23 02:14N 46°46' W 002°50'0 0.1
2016-Aug-22 23:24N 46°46' W 002°50'19 2.1
2016-Aug-22 14:15N 46°51' W 003°17'2 2.3
2016-Aug-22 13:27N 46°53' W 003°16'2 1.7
2016-Aug-22 12:29N 46°51' W 003°17'2 1.4
2016-Aug-22 11:19N 46°51' W 003°14'7 8.3
2016-Aug-22 10:27N 46°50' W 003°04'8 9.3
2016-Aug-22 09:33N 46°48' W 002°52'3 2.7
2016-Aug-22 08:33N 46°47' W 002°49'0 0.1
2016-Aug-22 07:32N 46°47' W 002°48'0 0.0
2016-Aug-22 06:26N 46°47' W 002°48'0 0.1
2016-Aug-22 02:15N 46°47' W 002°48'0 0.1
2016-Aug-22 01:32N 46°47' W 002°48'1 0.5
2016-Aug-22 00:28N 46°47' W 002°48'5 5.0
2016-Aug-21 23:31N 46°49' W 002°54'8 8.2
2016-Aug-21 22:33N 46°55' W 003°02'17 4.1
2016-Aug-21 18:31N 47°07' W 003°18'1 0.2
2016-Aug-21 16:24N 47°07' W 003°19'6 2.2
2016-Aug-21 13:30N 47°03' W 003°12'1 1.5
2016-Aug-21 12:33N 47°02' W 003°14'2 0.8
2016-Aug-21 10:33N 47°03' W 003°12'2 1.8
2016-Aug-21 09:33N 47°03' W 003°15'7 3.1
2016-Aug-21 07:15N 47°04' W 003°04'6 8.6
2016-Aug-21 06:33N 47°03' W 002°55'20 8.2
2016-Aug-21 04:10N 47°01' W 002°27'5 8.1
2016-Aug-21 03:34N 47°01' W 002°20'1 1.1
2016-Aug-21 02:32N 47°02' W 002°18'0 0.0
2016-Aug-21 00:15N 47°02' W 002°18'0 0.0
2016-Aug-20 22:30N 47°02' W 002°18'0 0.0
2016-Aug-20 20:26N 47°02' W 002°18'0 0.0
2016-Aug-20 19:30N 47°02' W 002°18'0 0.0
2016-Aug-20 18:27N 47°02' W 002°18'0 0.0
2016-Aug-20 17:32N 47°02' W 002°18'0 0.0
2016-Aug-20 16:22N 47°02' W 002°18'1 0.6
2016-Aug-20 15:33N 47°02' W 002°18'40 1.9
2016-Aug-19 18:27N 47°01' W 003°16'3 3.0
2016-Aug-19 17:21N 47°03' W 003°12'1 0.7
2016-Aug-19 15:30N 47°05' W 003°13'0 0.4
2016-Aug-19 14:30N 47°04' W 003°13'2 1.9
2016-Aug-19 13:33N 47°03' W 003°14'1 1.0
2016-Aug-19 12:33N 47°04' W 003°14'1 1.2
2016-Aug-19 11:33N 47°05' W 003°14'3 2.8
2016-Aug-19 10:24N 47°07' W 003°18'1 0.6
2016-Aug-19 09:24N 47°07' W 003°19'1 1.1
2016-Aug-19 08:33N 47°07' W 003°19'0 0.2
2016-Aug-19 07:33N 47°07' W 003°19'1 0.8
2016-Aug-19 06:24N 47°07' W 003°18'0 0.2
2016-Aug-19 05:33N 47°07' W 003°18'1 0.7
2016-Aug-19 04:33N 47°07' W 003°17'0 0.0
2016-Aug-19 03:33N 47°07' W 003°17'0 0.0
2016-Aug-19 02:33N 47°07' W 003°17'0 0.0
2016-Aug-19 01:30N 47°07' W 003°17'0 0.0
2016-Aug-19 00:27N 47°07' W 003°17'0 0.1
2016-Aug-18 21:24N 47°07' W 003°17'0 0.1
2016-Aug-18 18:15N 47°07' W 003°17'3 1.0
2016-Aug-18 15:30N 47°04' W 003°17'3 3.1
2016-Aug-18 14:24N 47°08' W 003°17'2 1.5
2016-Aug-18 13:21N 47°06' W 003°16'2 1.3
2016-Aug-18 11:30N 47°04' W 003°14'0 0.4
2016-Aug-18 10:27N 47°05' W 003°14'0 0.2
2016-Aug-18 09:19N 47°05' W 003°14'1 0.7
2016-Aug-18 08:30N 47°05' W 003°14'3 2.8
2016-Aug-18 07:21N 47°08' W 003°17'1 1.8
2016-Aug-18 06:33N 47°07' W 003°16'0 0.3
2016-Aug-18 05:33N 47°07' W 003°16'1 0.3
2016-Aug-18 03:33N 47°07' W 003°15'0 0.0
2016-Aug-17 17:12N 47°07' W 003°15'  

Dump ship's entire track history